Time;durP1;ratioP1;P1;durP2;ratioP2;P2;SDS_P1;SDS_P2;PMS_P1;PMS_P2;Temp;Humidity;BMP_temperature;BMP_pressure;BME280_temperature;BME280_humidity;BME280_pressure;Samples;Min_cycle;Max_cycle;Signal;HPM_P1;HPM_P2
2023/10/03 00:00:58;;;;;;;12.30;7.15;;;15.10;99.90;;;;;;5035185;28;20028;-58
2023/10/03 00:03:24;;;;;;;16.58;7.18;;;15.00;99.90;;;;;;5037061;28;20025;-58
2023/10/03 00:05:51;;;;;;;12.48;6.57;;;15.00;99.90;;;;;;5041259;28;20403;-57
2023/10/03 00:08:18;;;;;;;11.75;6.28;;;14.90;99.90;;;;;;5035164;28;20104;-57
2023/10/03 00:10:45;;;;;;;13.10;7.40;;;14.90;99.90;;;;;;5044491;28;20021;-57
2023/10/03 00:13:11;;;;;;;13.80;7.05;;;14.80;99.90;;;;;;5039710;28;20018;-57
2023/10/03 00:15:44;;;;;;;13.25;7.43;;;14.70;99.90;;;;;;5041573;28;20073;-57
2023/10/03 00:18:11;;;;;;;15.27;7.32;;;14.60;99.90;;;;;;5041317;28;20021;-57
2023/10/03 00:20:37;;;;;;;10.05;6.32;;;14.60;99.90;;;;;;5038378;28;20480;-57
2023/10/03 00:23:04;;;;;;;12.40;6.57;;;14.60;99.90;;;;;;5039739;28;20104;-57
2023/10/03 00:25:30;;;;;;;12.85;6.97;;;14.60;99.90;;;;;;5043030;28;20029;-57
2023/10/03 00:27:59;;;;;;;16.73;7.63;;;14.60;99.90;;;;;;5049090;28;20109;-57
2023/10/03 00:30:26;;;;;;;13.32;6.63;;;14.60;99.90;;;;;;5041658;28;20048;-56
2023/10/03 00:32:53;;;;;;;14.07;7.53;;;14.60;99.90;;;;;;5039504;28;20025;-57
2023/10/03 00:35:20;;;;;;;11.20;6.82;;;14.50;99.90;;;;;;5046285;28;20017;-56
2023/10/03 00:37:48;;;;;;;12.95;7.03;;;14.40;99.90;;;;;;5041835;28;20025;-57
2023/10/03 00:40:18;;;;;;;12.23;6.63;;;14.50;99.90;;;;;;5042462;28;20056;-56
2023/10/03 00:43:04;;;;;;;13.05;7.07;;;14.50;99.90;;;;;;5038278;28;20025;-56
2023/10/03 00:45:31;;;;;;;13.48;7.78;;;14.50;99.90;;;;;;5037101;28;20041;-57
2023/10/03 00:47:59;;;;;;;13.10;7.85;;;14.50;99.90;;;;;;5037717;28;20104;-57
2023/10/03 00:50:26;;;;;;;16.52;7.60;;;14.40;99.90;;;;;;5038899;28;20025;-56
2023/10/03 00:53:13;;;;;;;13.65;7.18;;;14.50;99.90;;;;;;5037685;28;20755;-57
2023/10/03 00:55:43;;;;;;;16.25;8.10;;;14.50;99.90;;;;;;5041151;28;20049;-57
2023/10/03 01:00:41;;;;;;;35.28;17.02;;;14.50;99.90;;;;;;5038507;28;20033;-58
2023/10/03 01:03:30;;;;;;;32.58;16.60;;;14.60;99.90;;;;;;5042507;28;20029;-58
2023/10/03 01:06:08;;;;;;;31.45;14.38;;;14.60;99.90;;;;;;5039188;28;20082;-58
2023/10/03 01:08:46;;;;;;;25.58;12.10;;;14.60;99.90;;;;;;5038440;28;20036;-58
2023/10/03 01:11:15;;;;;;;45.03;23.70;;;14.60;99.90;;;;;;5043902;28;20108;-57
2023/10/03 01:13:46;;;;;;;32.20;16.70;;;14.60;99.90;;;;;;5049401;28;20040;-58
2023/10/03 01:16:12;;;;;;;22.05;11.63;;;14.60;99.90;;;;;;5040890;28;20025;-57
2023/10/03 01:18:38;;;;;;;20.65;11.05;;;14.70;99.90;;;;;;5042392;28;20039;-57
2023/10/03 01:21:06;;;;;;;20.67;11.43;;;14.70;99.90;;;;;;5036203;28;20483;-58
2023/10/03 01:23:37;;;;;;;16.80;8.60;;;14.80;99.90;;;;;;5034831;28;20483;-57
2023/10/03 01:26:04;;;;;;;17.45;8.77;;;14.90;99.90;;;;;;5039229;28;20025;-58
2023/10/03 01:28:30;;;;;;;16.85;8.82;;;15.00;99.90;;;;;;5037583;28;20021;-57
2023/10/03 01:30:56;;;;;;;19.42;10.52;;;15.00;99.90;;;;;;5047431;28;20035;-57
2023/10/03 01:33:26;;;;;;;16.45;8.40;;;15.10;99.90;;;;;;5047333;28;20466;-57
2023/10/03 01:35:52;;;;;;;20.10;9.48;;;15.20;99.90;;;;;;5038402;28;20074;-57
2023/10/03 01:38:18;;;;;;;20.33;9.80;;;15.30;99.90;;;;;;5040296;28;20113;-58
2023/10/03 01:40:48;;;;;;;21.98;9.52;;;15.50;99.90;;;;;;5031543;28;20045;-57
2023/10/03 01:43:13;;;;;;;21.33;9.55;;;15.60;99.90;;;;;;5039432;28;20544;-58
2023/10/03 01:45:39;;;;;;;19.92;9.55;;;15.60;99.90;;;;;;5047661;28;20379;-58
2023/10/03 01:48:05;;;;;;;17.23;8.38;;;15.70;99.90;;;;;;5039644;28;20025;-57
2023/10/03 01:50:33;;;;;;;19.60;9.93;;;15.90;99.90;;;;;;5034629;28;20067;-57
2023/10/03 01:52:59;;;;;;;15.95;9.68;;;16.00;99.90;;;;;;5047216;28;20478;-57
2023/10/03 01:55:25;;;;;;;17.70;9.65;;;16.10;99.90;;;;;;5035699;28;20061;-58
2023/10/03 01:57:50;;;;;;;20.10;9.80;;;16.30;99.90;;;;;;5039705;28;20537;-58
2023/10/03 02:02:45;;;;;;;16.77;9.40;;;16.90;99.90;;;;;;5039987;28;20025;-58
2023/10/03 02:05:12;;;;;;;22.70;9.45;;;17.00;99.90;;;;;;5036935;28;20374;-57
2023/10/03 02:07:38;;;;;;;16.90;8.52;;;17.10;99.90;;;;;;5038336;28;20033;-58
2023/10/03 02:10:04;;;;;;;18.27;9.43;;;17.30;99.90;;;;;;5037038;28;20029;-57
2023/10/03 02:12:30;;;;;;;20.20;9.32;;;17.40;99.90;;;;;;5037899;28;20547;-57
2023/10/03 02:14:55;;;;;;;21.05;9.60;;;17.40;99.90;;;;;;5035287;28;20066;-57
2023/10/03 02:17:21;;;;;;;20.13;9.60;;;17.50;99.90;;;;;;5037922;28;20029;-56
2023/10/03 02:19:48;;;;;;;22.08;9.45;;;17.50;99.90;;;;;;5041540;28;20395;-57
2023/10/03 02:22:13;;;;;;;17.25;9.05;;;17.40;99.90;;;;;;5036881;28;20029;-57
2023/10/03 02:24:39;;;;;;;22.65;9.70;;;17.50;99.90;;;;;;5036737;28;20029;-57
2023/10/03 02:27:06;;;;;;;18.83;9.38;;;17.50;99.90;;;;;;5039701;28;20037;-57
2023/10/03 02:29:32;;;;;;;23.33;9.75;;;17.50;99.90;;;;;;5038183;28;20030;-57
2023/10/03 02:31:58;;;;;;;15.57;8.30;;;17.60;99.90;;;;;;5040350;28;20108;-57
2023/10/03 02:34:24;;;;;;;21.10;9.88;;;17.50;99.90;;;;;;5040807;28;20073;-57
2023/10/03 02:36:50;;;;;;;16.83;8.80;;;17.50;99.90;;;;;;5039352;28;20079;-57
2023/10/03 02:39:21;;;;;;;15.50;8.55;;;17.50;99.90;;;;;;5036595;28;20406;-57
2023/10/03 02:41:48;;;;;;;15.82;8.80;;;17.50;99.90;;;;;;5035925;28;20083;-57
2023/10/03 02:44:15;;;;;;;14.65;8.73;;;17.50;99.90;;;;;;5040303;28;20033;-57
2023/10/03 02:46:41;;;;;;;22.67;8.80;;;17.50;99.90;;;;;;5044125;28;20094;-57
2023/10/03 02:49:08;;;;;;;18.00;9.00;;;17.50;99.90;;;;;;5044552;28;20068;-57
2023/10/03 02:51:34;;;;;;;19.08;9.20;;;17.60;99.90;;;;;;5040122;28;20021;-57
2023/10/03 02:54:00;;;;;;;17.77;8.80;;;17.60;99.90;;;;;;5037818;28;20025;-57
2023/10/03 02:56:25;;;;;;;20.23;9.48;;;17.60;99.90;;;;;;5037320;28;20025;-57
2023/10/03 02:58:51;;;;;;;19.27;9.10;;;17.60;99.90;;;;;;5044028;28;20394;-57
2023/10/03 03:01:17;;;;;;;18.38;8.85;;;17.60;99.90;;;;;;5037369;28;20044;-57
2023/10/03 03:03:43;;;;;;;18.10;9.38;;;17.70;99.90;;;;;;5035637;28;20028;-57
2023/10/03 03:06:14;;;;;;;18.75;8.60;;;17.70;99.90;;;;;;5044545;28;20035;-56
2023/10/03 03:08:40;;;;;;;14.35;8.02;;;17.70;99.90;;;;;;5044237;28;20490;-57
2023/10/03 03:11:06;;;;;;;14.38;7.63;;;17.70;99.90;;;;;;5042229;28;20103;-56
2023/10/03 03:13:33;;;;;;;17.55;8.02;;;17.70;99.90;;;;;;5045985;28;20552;-56
2023/10/03 03:16:00;;;;;;;16.48;7.22;;;17.80;99.90;;;;;;5043468;28;20025;-57
2023/10/03 03:18:31;;;;;;;17.67;8.25;;;17.70;99.90;;;;;;5037486;28;20571;-57
2023/10/03 03:20:58;;;;;;;17.65;8.18;;;17.80;99.90;;;;;;5038599;28;20029;-57
2023/10/03 03:23:35;;;;;;;15.93;7.78;;;17.80;99.90;;;;;;5036928;28;20040;-56
2023/10/03 03:26:17;;;;;;;15.00;8.05;;;17.80;99.90;;;;;;5040160;28;20032;-57
2023/10/03 03:28:44;;;;;;;18.00;8.50;;;17.80;99.90;;;;;;5044539;28;20021;-55
2023/10/03 03:31:25;;;;;;;16.98;8.48;;;17.80;99.90;;;;;;5042630;28;20454;-55
2023/10/03 03:33:57;;;;;;;18.35;8.73;;;17.80;99.90;;;;;;5036492;28;20533;-55
2023/10/03 03:36:34;;;;;;;15.70;8.57;;;17.90;99.90;;;;;;5041526;28;20116;-56
2023/10/03 03:39:06;;;;;;;25.02;10.13;;;18.00;99.90;;;;;;5043063;28;20449;-56
2023/10/03 03:41:32;;;;;;;19.95;9.32;;;18.00;99.90;;;;;;5042445;28;20029;-56
2023/10/03 03:43:59;;;;;;;18.20;9.45;;;18.00;99.90;;;;;;5047482;28;20035;-57
2023/10/03 03:46:26;;;;;;;18.48;9.52;;;18.00;99.90;;;;;;5045813;28;20083;-56
2023/10/03 03:48:52;;;;;;;19.88;9.98;;;18.00;99.90;;;;;;5044477;28;20053;-56
2023/10/03 03:51:18;;;;;;;20.20;9.77;;;18.00;99.90;;;;;;5040934;28;20517;-57
2023/10/03 03:53:44;;;;;;;18.75;9.30;;;18.10;99.90;;;;;;5046079;28;20024;-57
2023/10/03 03:56:12;;;;;;;21.63;10.65;;;18.10;99.90;;;;;;5047481;28;20037;-56
2023/10/03 03:58:40;;;;;;;19.15;9.90;;;18.10;99.90;;;;;;5044565;28;20021;-57
2023/10/03 04:01:14;;;;;;;21.58;10.27;;;18.00;99.90;;;;;;5042543;28;20040;-56
2023/10/03 04:03:42;;;;;;;19.23;9.65;;;18.00;99.90;;;;;;5043396;28;20022;-56
2023/10/03 04:06:08;;;;;;;22.10;10.13;;;18.00;99.90;;;;;;5042269;28;20494;-56
2023/10/03 04:08:35;;;;;;;21.92;10.75;;;18.10;99.90;;;;;;5046750;28;20398;-56
2023/10/03 04:11:01;;;;;;;24.60;10.45;;;18.10;99.90;;;;;;5044187;28;20017;-56
2023/10/03 04:13:26;;;;;;;23.85;10.88;;;18.10;99.90;;;;;;5047763;28;20048;-57
2023/10/03 04:15:53;;;;;;;22.95;10.95;;;18.10;99.90;;;;;;5041392;28;20518;-56
2023/10/03 04:18:19;;;;;;;23.60;11.32;;;18.20;99.90;;;;;;5039760;28;20097;-57
2023/10/03 04:20:47;;;;;;;26.77;12.68;;;18.20;99.90;;;;;;5042721;28;20068;-57
2023/10/03 04:23:14;;;;;;;26.58;12.15;;;18.20;99.90;;;;;;5038850;28;20101;-57
2023/10/03 04:25:40;;;;;;;25.95;11.88;;;18.30;99.90;;;;;;5045878;28;20030;-57
2023/10/03 04:28:06;;;;;;;27.23;12.85;;;18.30;99.90;;;;;;5043290;28;20021;-57
2023/10/03 04:30:31;;;;;;;25.55;12.52;;;18.40;99.90;;;;;;5042435;28;20080;-57
2023/10/03 04:32:57;;;;;;;23.55;11.38;;;18.40;99.90;;;;;;5045615;28;20028;-56
2023/10/03 04:35:24;;;;;;;28.70;11.77;;;18.40;99.90;;;;;;5041245;28;20035;-56
2023/10/03 04:37:56;;;;;;;27.75;12.45;;;18.30;99.90;;;;;;5041478;28;20053;-55
2023/10/03 04:40:37;;;;;;;24.55;11.60;;;18.40;99.90;;;;;;5047910;28;20100;-56
2023/10/03 04:43:15;;;;;;;24.92;11.73;;;18.30;99.90;;;;;;5042994;28;20029;-56
2023/10/03 04:45:42;;;;;;;21.67;11.13;;;18.30;99.90;;;;;;5047211;28;20044;-56
2023/10/03 04:48:08;;;;;;;27.05;12.80;;;18.30;99.90;;;;;;5045211;28;20119;-57
2023/10/03 04:50:39;;;;;;;26.60;12.50;;;18.30;99.90;;;;;;5042812;28;20014;-56
2023/10/03 04:53:07;;;;;;;25.50;12.57;;;18.30;99.90;;;;;;5041596;28;20045;-56
2023/10/03 04:55:33;;;;;;;27.08;11.93;;;18.30;99.90;;;;;;5046064;28;20096;-57
2023/10/03 04:57:59;;;;;;;26.73;12.90;;;18.20;99.90;;;;;;5039736;28;20121;-56
2023/10/03 05:00:25;;;;;;;28.58;12.63;;;18.20;99.90;;;;;;5041426;28;20056;-56
2023/10/03 05:02:54;;;;;;;24.98;12.10;;;18.20;99.90;;;;;;5044000;28;20060;-57
2023/10/03 05:05:20;;;;;;;27.95;13.40;;;18.20;99.90;;;;;;5041152;28;20083;-56
2023/10/03 05:07:48;;;;;;;22.90;12.35;;;18.20;99.90;;;;;;5039240;28;20083;-57
2023/10/03 05:10:14;;;;;;;29.13;13.48;;;18.20;99.90;;;;;;5041304;28;20013;-56
2023/10/03 05:12:39;;;;;;;26.55;12.57;;;18.20;99.90;;;;;;5046716;28;20679;-56
2023/10/03 05:15:07;;;;;;;26.15;12.55;;;18.20;99.90;;;;;;5042905;28;20562;-56
2023/10/03 05:17:33;;;;;;;25.88;12.52;;;18.20;99.90;;;;;;5048504;28;20025;-56
2023/10/03 05:19:59;;;;;;;31.40;14.10;;;18.30;99.90;;;;;;5044325;28;20056;-55
2023/10/03 05:22:25;;;;;;;29.02;13.10;;;18.30;99.90;;;;;;5047891;28;20021;-56
2023/10/03 05:24:52;;;;;;;30.10;13.30;;;18.40;99.90;;;;;;5043034;28;20025;-55
2023/10/03 05:27:18;;;;;;;31.13;13.90;;;18.50;99.90;;;;;;5044877;28;20028;-56
2023/10/03 05:29:44;;;;;;;31.75;14.15;;;18.60;99.90;;;;;;5039966;28;20075;-56
2023/10/03 05:32:09;;;;;;;31.77;14.38;;;18.60;99.90;;;;;;5048927;28;20460;-55
2023/10/03 05:34:35;;;;;;;31.42;13.40;;;18.70;99.90;;;;;;5048140;28;20106;-56
2023/10/03 05:37:01;;;;;;;31.60;13.68;;;18.80;99.90;;;;;;5044395;28;20079;-55
2023/10/03 05:39:29;;;;;;;30.30;14.23;;;18.90;99.90;;;;;;5041780;28;20041;-55
2023/10/03 05:41:58;;;;;;;27.75;14.30;;;19.00;99.90;;;;;;5039258;28;20476;-55
2023/10/03 05:44:25;;;;;;;29.25;13.88;;;19.20;99.90;;;;;;5041114;28;20060;-54
2023/10/03 05:46:55;;;;;;;31.05;15.27;;;19.20;99.90;;;;;;5047585;28;20483;-55
2023/10/03 05:49:23;;;;;;;31.57;15.33;;;19.20;99.90;;;;;;5043905;28;20561;-56
2023/10/03 05:51:49;;;;;;;29.08;14.35;;;19.30;99.90;;;;;;5047308;28;20410;-56
2023/10/03 05:54:15;;;;;;;35.83;14.13;;;19.40;99.90;;;;;;5036752;28;20041;-56
2023/10/03 05:56:40;;;;;;;30.90;14.10;;;19.50;99.90;;;;;;5045949;28;20025;-56
2023/10/03 05:59:06;;;;;;;29.50;14.38;;;19.50;99.90;;;;;;5046526;28;20021;-57
2023/10/03 06:01:32;;;;;;;29.85;13.65;;;19.50;99.90;;;;;;5044780;28;20024;-57
2023/10/03 06:03:58;;;;;;;31.75;14.00;;;19.50;99.90;;;;;;5043989;28;20028;-57
2023/10/03 06:06:23;;;;;;;32.88;13.98;;;19.50;99.90;;;;;;5041243;28;20408;-57
2023/10/03 06:08:49;;;;;;;30.90;14.85;;;19.50;99.90;;;;;;5046347;28;20096;-57
2023/10/03 06:11:16;;;;;;;30.10;14.45;;;19.50;99.90;;;;;;5033782;28;20022;-57
2023/10/03 06:13:44;;;;;;;31.17;14.32;;;19.50;99.90;;;;;;5042810;28;20329;-56
2023/10/03 06:16:14;;;;;;;30.00;14.27;;;19.50;99.90;;;;;;5048728;28;20025;-57
2023/10/03 06:18:42;;;;;;;33.78;14.32;;;19.50;99.90;;;;;;5043465;28;20021;-57
2023/10/03 06:21:08;;;;;;;31.85;14.57;;;19.50;99.90;;;;;;5045383;28;20580;-57
2023/10/03 06:23:34;;;;;;;32.42;14.68;;;19.50;99.90;;;;;;5040702;28;20029;-58
2023/10/03 06:26:01;;;;;;;26.23;13.90;;;19.60;99.90;;;;;;5037580;28;20029;-57
2023/10/03 06:28:28;;;;;;;28.70;13.73;;;19.70;99.90;;;;;;5041631;28;20030;-57
2023/10/03 06:30:54;;;;;;;30.40;14.98;;;19.80;99.90;;;;;;5039347;28;20024;-57
2023/10/03 06:33:20;;;;;;;31.25;13.80;;;19.90;99.90;;;;;;5035913;28;20374;-57
2023/10/03 06:35:48;;;;;;;31.60;15.00;;;19.90;99.90;;;;;;5039150;28;20021;-57
2023/10/03 06:38:14;;;;;;;26.35;13.40;;;19.90;99.90;;;;;;5041641;28;20028;-57
2023/10/03 06:40:41;;;;;;;28.80;13.85;;;20.00;99.90;;;;;;5043623;28;20021;-56
2023/10/03 06:43:06;;;;;;;34.53;15.43;;;20.00;99.90;;;;;;5039859;28;20479;-56
2023/10/03 06:45:32;;;;;;;28.27;13.63;;;20.00;99.90;;;;;;5041624;28;20033;-57
2023/10/03 06:48:02;;;;;;;31.08;14.55;;;20.10;99.90;;;;;;5044690;28;20079;-57
2023/10/03 06:50:28;;;;;;;;;;;20.10;99.90;;;;;;5045000;28;20019;-57
2023/10/03 06:52:53;;;;;;;26.70;14.15;;;20.20;99.90;;;;;;5044513;28;19908;-57
2023/10/03 06:55:19;;;;;;;30.10;14.93;;;20.20;99.90;;;;;;5042790;28;20047;-57
2023/10/03 06:57:45;;;;;;;30.13;15.10;;;20.20;99.90;;;;;;5046734;28;20025;-58
2023/10/03 07:00:14;;;;;;;34.28;14.15;;;20.20;99.90;;;;;;5042091;28;20072;-57
2023/10/03 07:02:40;;;;;;;28.13;13.77;;;20.30;99.90;;;;;;5036430;28;20030;-57
2023/10/03 07:05:07;;;;;;;30.85;13.93;;;20.30;99.90;;;;;;5044134;28;20121;-57
2023/10/03 07:07:33;;;;;;;29.75;14.15;;;20.30;99.90;;;;;;5040729;28;20465;-57
2023/10/03 07:09:58;;;;;;;26.00;12.95;;;20.40;99.90;;;;;;5043918;28;20033;-58
2023/10/03 07:12:27;;;;;;;27.42;13.48;;;20.40;99.90;;;;;;5041936;28;20029;-57
2023/10/03 07:14:52;;;;;;;30.05;14.10;;;20.40;99.90;;;;;;5045766;28;20050;-57
2023/10/03 07:17:18;;;;;;;25.70;13.13;;;20.40;99.90;;;;;;5037561;28;20017;-57
2023/10/03 07:19:48;;;;;;;28.33;13.23;;;20.50;99.90;;;;;;5042630;28;20049;-57
2023/10/03 07:22:14;;;;;;;28.17;14.07;;;20.50;99.90;;;;;;5043101;28;20017;-58
2023/10/03 07:24:40;;;;;;;28.50;14.88;;;20.60;99.90;;;;;;5042042;28;20034;-57
2023/10/03 07:27:07;;;;;;;27.73;14.23;;;20.60;99.90;;;;;;5046922;28;20067;-57
2023/10/03 07:29:33;;;;;;;31.10;14.60;;;20.70;99.90;;;;;;5042300;28;20025;-57
2023/10/03 07:31:58;;;;;;;27.55;14.23;;;20.70;99.90;;;;;;5040034;28;20486;-57
2023/10/03 07:34:25;;;;;;;33.25;14.95;;;20.80;99.90;;;;;;5041109;28;20029;-57
2023/10/03 07:36:50;;;;;;;27.20;13.68;;;20.80;99.90;;;;;;5041954;28;20114;-57
2023/10/03 07:39:17;;;;;;;31.45;14.38;;;20.80;99.90;;;;;;5033100;28;20068;-57
2023/10/03 07:41:43;;;;;;;29.77;14.93;;;20.90;99.90;;;;;;5040737;28;20020;-57
2023/10/03 07:44:10;;;;;;;28.75;13.57;;;20.90;99.90;;;;;;5040386;28;20372;-57
2023/10/03 07:46:36;;;;;;;27.45;13.88;;;21.00;99.90;;;;;;5034713;28;20514;-57
2023/10/03 07:49:02;;;;;;;24.98;13.57;;;21.00;99.90;;;;;;5044305;28;20116;-57
2023/10/03 07:51:29;;;;;;;28.25;14.65;;;21.10;99.90;;;;;;5042899;28;20032;-58
2023/10/03 07:53:55;;;;;;;30.42;15.23;;;21.20;99.90;;;;;;5047991;28;20212;-58
2023/10/03 07:56:25;;;;;;;28.70;14.90;;;21.20;99.90;;;;;;5039245;28;20033;-57
2023/10/03 07:58:55;;;;;;;24.95;13.18;;;21.30;99.90;;;;;;5041684;28;20425;-58
2023/10/03 08:01:24;;;;;;;37.55;14.13;;;21.30;99.90;;;;;;5044915;28;20509;-57
2023/10/03 08:03:53;;;;;;;25.35;13.15;;;21.40;99.90;;;;;;5038894;28;20044;-57
2023/10/03 08:06:20;;;;;;;24.05;13.10;;;21.40;99.90;;;;;;5044187;28;20648;-57
2023/10/03 08:08:45;;;;;;;24.55;13.10;;;21.50;99.90;;;;;;5046784;28;20028;-58
2023/10/03 08:11:13;;;;;;;31.05;15.02;;;21.40;99.90;;;;;;5045408;28;20462;-57
2023/10/03 08:13:41;;;;;;;29.42;12.50;;;21.40;99.90;;;;;;5043915;28;20471;-57
2023/10/03 08:16:07;;;;;;;26.35;12.65;;;21.50;99.90;;;;;;5038357;28;20471;-58
2023/10/03 08:18:36;;;;;;;28.27;12.95;;;21.50;99.90;;;;;;5044549;28;20021;-58
2023/10/03 08:21:03;;;;;;;27.25;13.13;;;21.50;99.90;;;;;;5044212;28;20542;-57
2023/10/03 08:23:32;;;;;;;28.13;13.80;;;21.50;99.90;;;;;;5047819;28;20313;-57
2023/10/03 08:26:02;;;;;;;23.15;12.40;;;21.50;99.90;;;;;;5040111;28;20025;-57
2023/10/03 08:28:29;;;;;;;27.23;14.40;;;21.50;99.90;;;;;;5044820;28;20671;-57
2023/10/03 08:30:55;;;;;;;27.25;13.02;;;21.60;99.90;;;;;;5050683;28;20017;-57
2023/10/03 08:33:22;;;;;;;26.27;12.75;;;21.60;99.90;;;;;;5046838;28;20048;-57
2023/10/03 08:35:48;;;;;;;32.63;13.55;;;21.60;99.90;;;;;;5044579;28;20082;-57
2023/10/03 08:38:14;;;;;;;24.52;13.30;;;21.60;99.90;;;;;;5043295;28;20020;-57
2023/10/03 08:40:42;;;;;;;23.70;11.70;;;21.70;99.90;;;;;;5048050;28;20502;-57
2023/10/03 08:43:11;;;;;;;23.35;12.43;;;21.80;99.90;;;;;;5048567;28;20017;-57
2023/10/03 08:45:52;;;;;;;26.40;13.13;;;21.80;99.90;;;;;;5049051;28;20013;-57
2023/10/03 08:48:28;;;;;;;27.85;13.35;;;21.70;99.90;;;;;;5047353;28;20683;-57
2023/10/03 08:50:57;;;;;;;22.35;12.45;;;21.60;99.90;;;;;;5046905;28;20060;-57
2023/10/03 08:53:27;;;;;;;23.92;11.98;;;21.50;99.90;;;;;;5045148;28;20382;-57
2023/10/03 08:56:05;;;;;;;27.25;13.13;;;21.50;99.90;;;;;;5047223;28;20021;-57
2023/10/03 08:58:31;;;;;;;24.15;12.02;;;21.50;99.90;;;;;;5041078;28;20237;-57
2023/10/03 09:01:04;;;;;;;24.25;13.27;;;21.50;99.90;;;;;;5046616;28;20031;-57
2023/10/03 09:03:47;;;;;;;28.25;13.27;;;21.60;99.90;;;;;;5043910;28;20493;-57
2023/10/03 09:06:19;;;;;;;25.00;12.45;;;21.60;99.90;;;;;;5039693;28;20071;-57
2023/10/03 09:08:48;;;;;;;21.83;11.80;;;21.70;99.90;;;;;;5046868;28;20097;-57
2023/10/03 09:11:13;;;;;;;22.75;12.35;;;21.60;99.90;;;;;;5047274;28;20021;-57
2023/10/03 09:13:40;;;;;;;20.83;11.35;;;21.60;99.90;;;;;;5049955;28;20024;-57
2023/10/03 09:16:08;;;;;;;27.88;12.35;;;21.60;99.90;;;;;;5049113;28;20251;-57
2023/10/03 09:18:41;;;;;;;26.02;12.65;;;21.60;99.90;;;;;;5049115;28;20332;-57
2023/10/03 09:21:23;;;;;;;22.80;11.75;;;21.60;99.90;;;;;;5050247;28;20486;-57
2023/10/03 09:24:01;;;;;;;22.88;12.57;;;21.60;99.90;;;;;;5049783;28;20025;-57
2023/10/03 09:26:45;;;;;;;25.60;12.65;;;21.70;99.90;;;;;;5048001;28;20017;-57
2023/10/03 09:29:11;;;;;;;24.33;12.05;;;21.80;99.90;;;;;;5043474;28;20029;-57
2023/10/03 09:31:37;;;;;;;22.35;12.43;;;21.80;99.90;;;;;;5038526;28;20036;-57
2023/10/03 09:34:02;;;;;;;23.23;12.05;;;21.90;99.90;;;;;;5045983;28;20033;-57
2023/10/03 09:36:28;;;;;;;24.48;13.02;;;21.90;99.90;;;;;;5047054;28;20025;-57
2023/10/03 09:38:55;;;;;;;22.20;11.98;;;21.80;99.90;;;;;;5047874;28;20588;-58
2023/10/03 09:41:21;;;;;;;27.33;11.70;;;21.80;99.90;;;;;;5045817;28;20305;-58
2023/10/03 09:43:55;;;;;;;25.60;12.82;;;21.80;99.90;;;;;;5040190;28;20173;-57
2023/10/03 09:46:38;;;;;;;21.88;12.15;;;21.80;99.90;;;;;;5045944;28;20031;-57
2023/10/03 09:49:08;;;;;;;24.73;12.25;;;21.80;99.90;;;;;;5042967;28;20083;-58
2023/10/03 09:51:46;;;;;;;;;;;22.00;99.90;;;;;;5040113;28;20034;-58
2023/10/03 09:54:24;;;;;;;22.63;11.43;;;22.10;99.90;;;;;;5046420;28;19996;-58
2023/10/03 09:56:51;;;;;;;22.13;11.68;;;22.10;99.90;;;;;;5041140;28;20021;-58
2023/10/03 09:59:21;;;;;;;23.17;12.15;;;22.10;99.90;;;;;;5048575;28;20028;-58
2023/10/03 10:01:47;;;;;;;25.88;12.35;;;22.10;99.90;;;;;;5035527;28;20039;-58
2023/10/03 10:04:16;;;;;;;22.48;12.10;;;22.10;99.90;;;;;;5043626;28;20393;-58
2023/10/03 10:06:51;;;;;;;25.17;12.07;;;22.10;99.90;;;;;;5046890;28;20283;-58
2023/10/03 10:09:27;;;;;;;25.33;12.38;;;22.10;99.90;;;;;;5046786;28;20073;-58
2023/10/03 10:12:19;;;;;;;25.35;11.43;;;22.00;99.90;;;;;;5037413;28;20022;-58
2023/10/03 10:15:00;;;;;;;24.38;12.07;;;22.00;99.90;;;;;;5040550;28;20362;-58
2023/10/03 10:17:45;;;;;;;21.25;11.80;;;22.00;99.90;;;;;;5048323;28;20025;-58
2023/10/03 10:20:12;;;;;;;25.58;13.50;;;22.00;99.90;;;;;;5048171;28;20100;-58
2023/10/03 10:22:58;;;;;;;25.33;12.73;;;22.10;99.90;;;;;;5047361;28;20109;-58
2023/10/03 10:25:28;;;;;;;22.10;12.02;;;22.20;99.90;;;;;;5045116;28;20028;-58
2023/10/03 10:28:07;;;;;;;23.85;11.63;;;22.30;99.90;;;;;;5047331;28;20017;-58
2023/10/03 10:30:42;;;;;;;20.42;11.75;;;22.40;99.90;;;;;;5047666;28;20021;-58
2023/10/03 10:33:23;;;;;;;22.50;12.35;;;22.50;99.90;;;;;;5048479;28;20024;-58
2023/10/03 10:35:55;;;;;;;;;;;22.80;99.90;;;;;;5036613;28;20029;-58
2023/10/03 10:38:32;;;;;;;22.95;11.75;;;23.10;99.90;;;;;;5036085;28;19908;-58
2023/10/03 10:41:26;;;;;;;21.23;11.52;;;23.60;99.40;;;;;;5037381;28;20044;-58
2023/10/03 10:44:14;;;;;;;22.55;11.73;;;23.60;99.10;;;;;;5035977;28;20025;-57
2023/10/03 10:46:45;;;;;;;17.27;11.07;;;23.30;99.40;;;;;;5036063;28;20033;-58
2023/10/03 10:49:37;;;;;;;21.65;11.10;;;23.20;99.70;;;;;;5035159;28;20414;-58
2023/10/03 10:52:08;;;;;;;23.60;11.90;;;23.30;99.90;;;;;;5037277;28;20026;-58
2023/10/03 10:54:41;;;;;;;22.20;11.60;;;23.30;99.90;;;;;;5042980;28;20023;-58
2023/10/03 10:57:10;;;;;;;22.33;11.70;;;24.00;99.50;;;;;;5039019;28;20031;-58
2023/10/03 10:59:38;;;;;;;21.80;11.75;;;24.60;98.60;;;;;;5036338;28;20344;-58
2023/10/03 11:02:20;;;;;;;22.05;9.73;;;24.70;98.10;;;;;;5039686;28;20057;-58
2023/10/03 11:04:56;;;;;;;22.65;10.25;;;24.70;97.80;;;;;;5036345;28;20028;-58
2023/10/03 11:07:23;;;;;;;19.85;8.88;;;24.40;98.20;;;;;;5041533;28;20040;-58
2023/10/03 11:09:50;;;;;;;18.02;8.43;;;24.00;98.30;;;;;;5041123;28;20060;-58
2023/10/03 11:12:26;;;;;;;21.08;9.30;;;23.70;98.90;;;;;;5042684;28;20622;-58
2023/10/03 11:14:56;;;;;;;19.35;8.43;;;23.50;99.40;;;;;;5040587;28;20112;-58
2023/10/03 11:17:23;;;;;;;18.27;8.20;;;23.50;99.40;;;;;;5039982;28;20245;-58
2023/10/03 11:19:49;;;;;;;15.77;9.25;;;23.90;99.00;;;;;;5037192;28;20029;-58
2023/10/03 11:22:17;;;;;;;13.98;7.20;;;24.00;98.70;;;;;;5038870;28;20095;-58
2023/10/03 11:24:44;;;;;;;16.48;7.35;;;24.20;99.20;;;;;;5042671;28;20017;-58
2023/10/03 11:27:24;;;;;;;19.15;7.32;;;24.90;97.40;;;;;;5035583;28;20029;-58
2023/10/03 11:29:50;;;;;;;13.45;7.80;;;26.00;96.80;;;;;;5029951;28;20549;-58
2023/10/03 11:32:32;;;;;;;11.95;6.47;;;26.90;94.40;;;;;;5036723;28;20060;-58
2023/10/03 11:35:12;;;;;;;9.98;5.65;;;27.10;93.60;;;;;;5044070;28;20017;-58
2023/10/03 11:37:44;;;;;;;10.35;4.93;;;27.30;92.60;;;;;;5038485;28;20032;-59
2023/10/03 11:40:14;;;;;;;5.93;4.38;;;26.60;92.50;;;;;;5033321;28;20041;-58
2023/10/03 11:42:55;;;;;;;10.02;4.07;;;25.70;92.80;;;;;;5033527;28;20028;-60
2023/10/03 11:45:28;;;;;;;8.02;3.60;;;25.10;93.70;;;;;;5040032;28;20029;-59
2023/10/03 11:48:17;;;;;;;9.55;3.85;;;24.70;94.10;;;;;;5030000;28;20032;-58
2023/10/03 11:50:44;;;;;;;6.97;4.15;;;24.50;94.30;;;;;;5036969;28;20024;-58
2023/10/03 11:53:11;;;;;;;9.90;3.78;;;24.30;94.80;;;;;;5040190;28;20022;-58
2023/10/03 11:55:40;;;;;;;10.85;4.63;;;24.00;95.20;;;;;;5033798;28;20513;-58
2023/10/03 11:58:06;;;;;;;14.35;4.45;;;24.10;95.30;;;;;;5040189;28;20040;-58
2023/10/03 12:00:32;;;;;;;8.50;3.58;;;24.10;95.40;;;;;;5044189;28;20028;-58
2023/10/03 12:02:58;;;;;;;6.18;3.40;;;24.00;95.50;;;;;;5037708;28;20455;-58
2023/10/03 12:05:25;;;;;;;6.20;3.45;;;23.90;95.50;;;;;;5044368;28;20045;-58
2023/10/03 12:07:51;;;;;;;8.73;3.63;;;23.90;95.80;;;;;;5042314;28;20029;-58
2023/10/03 12:10:17;;;;;;;16.83;10.18;;;24.10;95.60;;;;;;5037612;28;20116;-58
2023/10/03 12:12:43;;;;;;;11.07;5.55;;;25.00;95.50;;;;;;5041815;28;20059;-59
2023/10/03 12:15:13;;;;;;;11.75;4.38;;;25.40;94.40;;;;;;5041145;28;20047;-62
2023/10/03 12:17:44;;;;;;;8.60;5.00;;;25.40;93.80;;;;;;5044968;28;20049;-58
2023/10/03 12:20:14;;;;;;;8.80;4.93;;;25.30;94.30;;;;;;5046079;28;20029;-59
2023/10/03 12:22:41;;;;;;;9.18;4.47;;;25.30;94.40;;;;;;5036476;28;20104;-58
2023/10/03 12:25:09;;;;;;;8.40;4.38;;;24.70;94.50;;;;;;5037232;28;20564;-58
2023/10/03 12:27:35;;;;;;;11.18;4.70;;;24.30;95.00;;;;;;5036751;28;20123;-58
2023/10/03 12:30:04;;;;;;;8.70;4.90;;;24.00;95.40;;;;;;5040063;28;20060;-58
2023/10/03 12:32:36;;;;;;;8.93;4.22;;;23.80;95.50;;;;;;5041656;28;20017;-58
2023/10/03 12:35:03;;;;;;;9.05;4.80;;;23.50;96.00;;;;;;5041369;28;20017;-58
2023/10/03 12:37:30;;;;;;;7.18;4.78;;;23.40;96.80;;;;;;5035637;28;20608;-58
2023/10/03 12:40:00;;;;;;;10.25;4.43;;;23.20;96.70;;;;;;5041761;28;20021;-60
2023/10/03 12:42:28;;;;;;;6.30;4.38;;;23.10;97.10;;;;;;5044502;28;20017;-58
2023/10/03 12:44:56;;;;;;;8.13;4.80;;;22.90;97.30;;;;;;5044137;28;20017;-58
2023/10/03 12:47:22;;;;;;;7.30;5.13;;;22.70;97.80;;;;;;5037023;28;20024;-57